createdAt,value
2018-11-29T00:00:30.030Z,69.70
2018-11-29T00:02:57.674Z,69.40
2018-11-29T00:05:25.373Z,69.30
2018-11-29T00:07:53.244Z,69.20
2018-11-29T00:10:20.906Z,68.90
2018-11-29T00:12:48.523Z,69.50
2018-11-29T00:15:16.226Z,69.70
2018-11-29T00:17:43.864Z,70.00
2018-11-29T00:20:17.109Z,70.30
2018-11-29T00:22:46.453Z,70.20
2018-11-29T00:25:14.927Z,70.20
2018-11-29T00:27:42.758Z,70.00
2018-11-29T00:30:18.275Z,69.70
2018-11-29T00:32:46.020Z,69.50
2018-11-29T00:35:14.423Z,69.50
2018-11-29T00:37:42.188Z,69.50
2018-11-29T00:40:11.884Z,69.70
2018-11-29T00:42:39.546Z,70.00
2018-11-29T00:45:08.962Z,69.80
2018-11-29T00:47:36.591Z,69.70
2018-11-29T00:50:05.820Z,69.70
2018-11-29T00:55:10.764Z,69.40
2018-11-29T00:57:38.608Z,69.40
2018-11-29T01:00:14.492Z,69.50
2018-11-29T01:02:42.220Z,69.40
2018-11-29T01:05:10.007Z,69.70
2018-11-29T01:07:37.717Z,69.70
2018-11-29T01:10:15.822Z,70.00
2018-11-29T01:12:43.821Z,69.70
2018-11-29T01:15:14.157Z,70.20
2018-11-29T01:17:41.971Z,70.20
2018-11-29T01:20:11.632Z,70.30
2018-11-29T01:22:39.305Z,70.20
2018-11-29T01:25:08.955Z,70.50
2018-11-29T01:27:36.654Z,70.70
2018-11-29T01:30:06.576Z,70.30
2018-11-29T01:32:34.236Z,70.20
2018-11-29T01:35:01.941Z,70.60
2018-11-29T01:37:29.552Z,70.80
2018-11-29T01:39:57.212Z,71.00
2018-11-29T01:42:24.796Z,70.90
2018-11-29T01:44:52.453Z,70.30
2018-11-29T01:47:20.099Z,70.50
2018-11-29T01:49:47.712Z,70.40
2018-11-29T01:52:15.361Z,69.90
2018-11-29T01:54:43.016Z,69.80
2018-11-29T01:57:10.595Z,69.90
2018-11-29T01:59:38.199Z,69.90
2018-11-29T02:02:05.914Z,69.80
2018-11-29T02:04:33.610Z,69.40
2018-11-29T02:07:01.221Z,69.90
2018-11-29T02:09:28.839Z,69.70
2018-11-29T02:11:56.498Z,69.70
2018-11-29T02:14:24.070Z,69.70
2018-11-29T02:16:51.731Z,69.70
2018-11-29T02:19:19.389Z,69.80
2018-11-29T02:21:53.641Z,69.70
2018-11-29T02:24:21.271Z,69.60
2018-11-29T02:26:48.894Z,69.60
2018-11-29T02:29:16.493Z,69.80
2018-11-29T02:31:44.114Z,70.00
2018-11-29T02:34:11.698Z,70.00
2018-11-29T02:36:39.378Z,70.10
2018-11-29T02:39:07.990Z,70.00
2018-11-29T02:41:35.622Z,69.80
2018-11-29T02:44:03.263Z,69.80
2018-11-29T02:46:30.875Z,70.00
2018-11-29T02:48:58.531Z,70.00
2018-11-29T02:51:26.123Z,70.20
2018-11-29T02:53:53.799Z,70.40
2018-11-29T02:56:21.413Z,70.50
2018-11-29T02:58:49.117Z,70.50
2018-11-29T03:01:16.730Z,70.00
2018-11-29T03:03:44.343Z,69.70
2018-11-29T03:06:11.927Z,69.80
2018-11-29T03:08:39.532Z,69.60
2018-11-29T03:11:07.159Z,69.50
2018-11-29T03:13:34.800Z,70.00
2018-11-29T03:16:02.436Z,70.20
2018-11-29T03:18:30.033Z,69.80
2018-11-29T03:20:57.636Z,69.70
2018-11-29T03:23:25.227Z,70.10
2018-11-29T03:25:53.106Z,69.80
2018-11-29T03:28:20.716Z,69.80
2018-11-29T03:30:48.374Z,70.00
2018-11-29T03:33:15.972Z,69.50
2018-11-29T03:35:44.626Z,69.30
2018-11-29T03:38:11.242Z,69.80
2018-11-29T03:40:38.824Z,70.50
2018-11-29T03:43:06.479Z,70.40
2018-11-29T03:45:34.073Z,70.30
2018-11-29T03:48:01.659Z,70.00
2018-11-29T03:50:29.245Z,70.30
2018-11-29T03:52:56.876Z,70.50
2018-11-29T03:55:24.602Z,70.70
2018-11-29T03:57:52.202Z,70.70
2018-11-29T04:00:19.853Z,70.40
2018-11-29T04:02:47.762Z,70.10
2018-11-29T04:05:15.462Z,69.80
2018-11-29T04:07:43.158Z,69.70
2018-11-29T04:10:11.901Z,69.60
2018-11-29T04:12:39.545Z,69.60
2018-11-29T04:15:08.669Z,69.40
2018-11-29T04:17:40.590Z,69.30
2018-11-29T04:20:05.847Z,69.70
2018-11-29T04:22:33.457Z,69.50
2018-11-29T04:25:01.068Z,69.60
2018-11-29T04:27:28.704Z,70.10
2018-11-29T04:29:56.344Z,70.20
2018-11-29T04:32:23.919Z,70.70
2018-11-29T04:34:51.491Z,70.60
2018-11-29T04:37:19.080Z,70.30
2018-11-29T04:39:46.731Z,69.90
2018-11-29T04:42:14.325Z,70.20
2018-11-29T04:44:41.916Z,70.20
2018-11-29T04:47:09.505Z,70.30
2018-11-29T04:49:37.141Z,70.20
2018-11-29T04:52:05.474Z,70.20
2018-11-29T04:54:33.072Z,70.50
2018-11-29T04:57:00.665Z,70.70
2018-11-29T04:59:28.262Z,70.80
2018-11-29T05:01:55.890Z,70.80
2018-11-29T05:04:23.558Z,71.00
2018-11-29T05:06:51.229Z,71.20
2018-11-29T05:09:25.583Z,71.70
2018-11-29T05:11:53.238Z,71.50
2018-11-29T05:14:20.824Z,71.20
2018-11-29T05:16:48.521Z,70.80
2018-11-29T05:19:16.147Z,70.50
2018-11-29T05:21:43.732Z,70.20
2018-11-29T05:24:11.408Z,69.80
2018-11-29T05:26:38.984Z,69.80
2018-11-29T05:29:06.607Z,70.60
2018-11-29T05:31:34.252Z,71.00
2018-11-29T05:34:01.937Z,71.20
2018-11-29T05:36:29.580Z,70.50
2018-11-29T05:38:57.193Z,70.50
2018-11-29T05:41:24.842Z,70.20
2018-11-29T05:43:52.444Z,70.10
2018-11-29T05:46:20.046Z,70.00
2018-11-29T05:48:47.628Z,70.00
2018-11-29T05:51:15.245Z,70.00
2018-11-29T05:53:42.852Z,70.00
2018-11-29T05:56:10.539Z,70.00
2018-11-29T05:58:38.186Z,70.60
2018-11-29T06:01:09.772Z,71.10
2018-11-29T06:03:37.496Z,70.70
2018-11-29T06:06:05.802Z,71.10
2018-11-29T06:08:33.397Z,71.00
2018-11-29T06:11:01.066Z,70.80
2018-11-29T06:13:28.955Z,70.40
2018-11-29T06:15:56.585Z,71.00
2018-11-29T06:18:24.194Z,70.90
2018-11-29T06:20:51.832Z,70.60
2018-11-29T06:23:19.449Z,70.80
2018-11-29T06:25:47.103Z,70.90
2018-11-29T06:28:14.762Z,70.60
2018-11-29T06:30:42.330Z,70.30
2018-11-29T06:33:09.928Z,70.00
2018-11-29T06:35:37.588Z,70.10
2018-11-29T06:38:05.556Z,69.90
2018-11-29T06:40:33.419Z,70.10
2018-11-29T06:43:01.009Z,70.00
2018-11-29T06:45:28.605Z,70.30
2018-11-29T06:47:56.225Z,70.00
2018-11-29T06:50:23.839Z,70.20
2018-11-29T06:52:51.789Z,69.80
2018-11-29T06:55:23.310Z,69.60
2018-11-29T06:57:51.873Z,69.40
2018-11-29T07:00:23.019Z,69.80
2018-11-29T07:02:50.739Z,69.90
2018-11-29T07:05:18.319Z,69.80
2018-11-29T07:07:46.195Z,69.70
2018-11-29T07:10:13.767Z,69.40
2018-11-29T07:12:41.344Z,69.20
2018-11-29T07:15:10.441Z,69.20
2018-11-29T07:17:38.246Z,70.00
2018-11-29T07:20:10.574Z,70.00
2018-11-29T07:22:38.314Z,70.70
2018-11-29T07:25:06.925Z,70.50
2018-11-29T07:27:34.721Z,70.50
2018-11-29T07:30:02.350Z,70.60
2018-11-29T07:32:29.984Z,70.90
2018-11-29T07:34:57.625Z,70.70
2018-11-29T07:37:25.183Z,70.70
2018-11-29T07:39:52.813Z,70.70
2018-11-29T07:42:20.450Z,70.70
2018-11-29T07:44:48.082Z,70.90
2018-11-29T07:47:15.733Z,71.10
2018-11-29T07:49:43.377Z,71.10
2018-11-29T07:52:10.956Z,70.80
2018-11-29T07:54:38.617Z,71.10
2018-11-29T07:57:06.351Z,71.10
2018-11-29T07:59:33.987Z,71.00
2018-11-29T08:02:01.653Z,71.40
2018-11-29T08:04:29.197Z,72.30
2018-11-29T08:06:56.797Z,72.40
2018-11-29T08:09:24.445Z,72.40
2018-11-29T08:11:52.011Z,72.20
2018-11-29T08:14:19.644Z,72.20
2018-11-29T08:16:47.269Z,72.30
2018-11-29T08:19:14.864Z,72.10
2018-11-29T08:21:42.423Z,71.70
2018-11-29T08:24:09.999Z,71.50
2018-11-29T08:26:37.671Z,71.20
2018-11-29T08:29:05.345Z,70.80
2018-11-29T08:31:32.995Z,70.80
2018-11-29T08:34:00.601Z,70.40
2018-11-29T08:36:28.189Z,70.40
2018-11-29T08:38:55.833Z,70.20
2018-11-29T08:41:23.477Z,70.00
2018-11-29T08:43:51.072Z,69.60
2018-11-29T08:46:18.665Z,69.50
2018-11-29T08:48:46.354Z,69.30
2018-11-29T08:51:13.960Z,69.40
2018-11-29T08:53:41.540Z,69.20
2018-11-29T08:56:09.123Z,69.30
2018-11-29T08:58:36.740Z,69.10
2018-11-29T09:01:04.530Z,69.10
2018-11-29T09:03:32.183Z,69.40
2018-11-29T09:05:59.821Z,69.60
2018-11-29T09:08:27.362Z,69.30
2018-11-29T09:10:55.025Z,69.60
2018-11-29T09:13:22.609Z,69.20
2018-11-29T09:15:50.197Z,68.90
2018-11-29T09:18:17.837Z,68.70
2018-11-29T09:20:45.454Z,69.40
2018-11-29T09:23:13.137Z,68.80
2018-11-29T09:25:40.831Z,68.70
2018-11-29T09:28:08.461Z,68.90
2018-11-29T09:30:36.154Z,68.60
2018-11-29T09:33:03.850Z,68.50
2018-11-29T09:35:31.477Z,68.30
2018-11-29T09:37:59.141Z,68.60
2018-11-29T09:40:26.802Z,68.10
2018-11-29T09:42:54.433Z,68.00
2018-11-29T09:45:22.838Z,68.20
2018-11-29T09:47:51.578Z,68.00
2018-11-29T09:50:19.293Z,68.20
2018-11-29T09:52:46.907Z,67.70
2018-11-29T09:55:15.367Z,68.30
2018-11-29T09:57:43.282Z,68.40
2018-11-29T10:00:14.906Z,67.80
2018-11-29T10:02:44.101Z,67.80
2018-11-29T10:05:12.255Z,68.30
2018-11-29T10:07:39.902Z,68.00
2018-11-29T10:10:09.350Z,67.80
2018-11-29T10:12:37.064Z,67.90
2018-11-29T10:15:06.641Z,67.60
2018-11-29T10:17:34.365Z,67.30
2018-11-29T10:20:02.026Z,66.80
2018-11-29T10:22:29.686Z,67.30
2018-11-29T10:24:57.331Z,67.10
2018-11-29T10:27:24.948Z,67.10
2018-11-29T10:29:52.581Z,67.00
2018-11-29T10:32:20.145Z,67.00
2018-11-29T10:34:47.776Z,67.00
2018-11-29T10:37:15.359Z,66.70
2018-11-29T10:39:42.961Z,66.30
2018-11-29T10:42:10.615Z,66.10
2018-11-29T10:44:38.241Z,65.20
2018-11-29T10:47:05.930Z,65.60
2018-11-29T10:49:33.585Z,65.60
2018-11-29T10:52:01.234Z,65.70
2018-11-29T10:54:28.821Z,65.60
2018-11-29T10:56:56.477Z,66.10
2018-11-29T10:59:24.077Z,66.10
2018-11-29T11:01:57.304Z,66.00
2018-11-29T11:04:25.047Z,65.50
2018-11-29T11:06:52.626Z,65.70
2018-11-29T11:09:20.273Z,65.20
2018-11-29T11:11:47.897Z,65.30
2018-11-29T11:14:15.501Z,65.00
2018-11-29T11:16:43.142Z,64.30
2018-11-29T11:19:10.723Z,65.30
2018-11-29T11:21:38.346Z,65.10
2018-11-29T11:24:06.037Z,64.60
2018-11-29T11:26:33.629Z,64.60
2018-11-29T11:29:01.181Z,65.40
2018-11-29T11:31:31.202Z,65.10
2018-11-29T11:33:56.492Z,64.50
2018-11-29T11:36:24.140Z,64.00
2018-11-29T11:38:51.748Z,63.40
2018-11-29T11:41:19.393Z,63.50
2018-11-29T11:43:46.983Z,62.80
2018-11-29T11:46:14.629Z,63.10
2018-11-29T11:48:42.252Z,61.90
2018-11-29T11:51:09.904Z,62.40
2018-11-29T11:53:37.598Z,62.30
2018-11-29T11:56:05.275Z,63.20
2018-11-29T11:58:32.897Z,63.40
2018-11-29T12:01:00.537Z,63.00
2018-11-29T12:03:28.179Z,62.70
2018-11-29T12:05:55.750Z,62.60
2018-11-29T12:08:23.370Z,62.50
2018-11-29T12:10:50.935Z,62.60
2018-11-29T12:13:18.610Z,62.00
2018-11-29T12:15:46.237Z,61.00
2018-11-29T12:18:13.932Z,61.40
2018-11-29T12:20:41.663Z,61.00
2018-11-29T12:23:09.420Z,60.40
2018-11-29T12:25:37.053Z,60.40
2018-11-29T12:28:05.049Z,61.10
2018-11-29T12:30:34.360Z,61.10
2018-11-29T12:33:03.276Z,60.30
2018-11-29T12:35:32.719Z,61.40
2018-11-29T12:38:00.394Z,62.50
2018-11-29T12:40:28.073Z,63.00
2018-11-29T12:42:55.781Z,62.50
2018-11-29T12:45:23.351Z,62.00
2018-11-29T12:47:51.178Z,62.50
2018-11-29T12:50:21.100Z,62.30
2018-11-29T12:52:48.746Z,61.50
2018-11-29T12:55:17.422Z,62.20
2018-11-29T12:57:45.153Z,62.10
2018-11-29T13:00:22.814Z,62.20
2018-11-29T13:02:55.399Z,62.60
2018-11-29T13:05:23.148Z,62.60
2018-11-29T13:07:50.895Z,62.90
2018-11-29T13:10:19.582Z,63.10
2018-11-29T13:12:47.254Z,62.90
2018-11-29T13:15:16.438Z,62.80
2018-11-29T13:17:44.184Z,63.20
2018-11-29T13:20:13.026Z,63.40
2018-11-29T13:22:40.699Z,63.80
2018-11-29T13:25:10.770Z,64.00
2018-11-29T13:27:38.434Z,63.60
2018-11-29T13:30:10.070Z,63.70
2018-11-29T13:32:37.715Z,63.90
2018-11-29T13:35:15.280Z,64.00
2018-11-29T13:37:44.213Z,64.20
2018-11-29T13:40:11.890Z,64.00
2018-11-29T13:42:39.600Z,64.20
2018-11-29T13:45:08.957Z,64.30
2018-11-29T13:47:36.928Z,64.20
2018-11-29T13:50:08.481Z,64.50
2018-11-29T13:52:36.251Z,64.30
2018-11-29T13:55:05.759Z,64.50
2018-11-29T13:57:33.438Z,64.40
2018-11-29T14:00:01.188Z,64.50
2018-11-29T14:02:28.837Z,64.70
2018-11-29T14:04:56.456Z,64.90
2018-11-29T14:07:24.153Z,65.20
2018-11-29T14:09:51.988Z,64.80
2018-11-29T14:12:19.562Z,64.70
2018-11-29T14:14:47.237Z,64.80
2018-11-29T14:17:14.925Z,65.00
2018-11-29T14:19:42.659Z,65.00
2018-11-29T14:22:10.190Z,64.70
2018-11-29T14:24:37.865Z,64.90
2018-11-29T14:27:06.262Z,65.20
2018-11-29T14:29:33.895Z,65.70
2018-11-29T14:32:02.116Z,65.90
2018-11-29T14:34:29.714Z,65.80
2018-11-29T14:36:57.263Z,65.70
2018-11-29T14:39:24.893Z,66.00
2018-11-29T14:41:52.784Z,65.80
2018-11-29T14:44:20.145Z,65.80
2018-11-29T14:46:47.752Z,66.00
2018-11-29T14:49:15.369Z,66.30
2018-11-29T14:51:48.019Z,66.40
2018-11-29T14:54:10.693Z,66.40
2018-11-29T14:56:38.321Z,66.60
2018-11-29T14:59:06.029Z,66.70
2018-11-29T15:01:33.723Z,67.00
2018-11-29T15:04:01.351Z,66.90
2018-11-29T15:06:28.969Z,67.20
2018-11-29T15:08:56.641Z,67.20
2018-11-29T15:11:29.162Z,67.30
2018-11-29T15:13:51.844Z,67.40
2018-11-29T15:16:20.931Z,67.10
2018-11-29T15:18:50.754Z,67.50
2018-11-29T15:21:18.375Z,67.60
2018-11-29T15:23:45.985Z,67.70
2018-11-29T15:26:13.593Z,67.70
2018-11-29T15:28:41.221Z,68.00
2018-11-29T15:31:08.813Z,68.10
2018-11-29T15:33:36.454Z,68.00
2018-11-29T15:36:04.166Z,68.20
2018-11-29T15:38:31.741Z,68.20
2018-11-29T15:40:59.388Z,68.40
2018-11-29T15:43:27.111Z,68.60
2018-11-29T15:45:54.713Z,68.20
2018-11-29T15:48:22.373Z,68.50
2018-11-29T15:50:49.945Z,68.50
2018-11-29T15:53:17.568Z,68.60
2018-11-29T15:55:45.152Z,68.60
2018-11-29T15:58:12.749Z,68.40
2018-11-29T16:00:40.531Z,68.10
2018-11-29T16:03:08.795Z,68.20
2018-11-29T16:05:36.667Z,68.40
2018-11-29T16:08:04.781Z,68.30
2018-11-29T16:10:33.562Z,68.50
2018-11-29T16:13:01.179Z,68.60
2018-11-29T16:15:28.822Z,68.70
2018-11-29T16:17:56.776Z,68.70
2018-11-29T16:20:25.919Z,68.70
2018-11-29T16:22:55.201Z,68.70
2018-11-29T16:25:22.977Z,68.60
2018-11-29T16:27:50.933Z,68.70
2018-11-29T16:30:26.730Z,68.70
2018-11-29T16:32:55.636Z,68.80
2018-11-29T16:35:25.553Z,69.10
2018-11-29T16:37:53.211Z,68.90
2018-11-29T16:40:20.806Z,68.60
2018-11-29T16:42:48.464Z,68.70
2018-11-29T16:45:16.159Z,68.50
2018-11-29T16:47:43.886Z,68.50
2018-11-29T16:50:12.967Z,68.60
2018-11-29T16:52:40.741Z,68.80
2018-11-29T16:55:12.275Z,68.90
2018-11-29T16:57:42.259Z,68.90
2018-11-29T17:00:12.581Z,68.70
2018-11-29T17:02:40.276Z,68.70
2018-11-29T17:05:09.672Z,68.60
2018-11-29T17:07:37.431Z,68.70
2018-11-29T17:10:07.623Z,68.30
2018-11-29T17:12:35.527Z,68.10
2018-11-29T17:15:03.529Z,68.30
2018-11-29T17:17:31.288Z,68.70
2018-11-29T17:19:59.070Z,68.30
2018-11-29T17:22:26.807Z,68.00
2018-11-29T17:24:54.519Z,68.10
2018-11-29T17:27:22.201Z,68.00
2018-11-29T17:29:49.842Z,68.10
2018-11-29T17:32:17.515Z,68.10
2018-11-29T17:34:45.122Z,68.10
2018-11-29T17:37:12.733Z,68.40
2018-11-29T17:39:40.408Z,68.20
2018-11-29T17:42:08.087Z,68.70
2018-11-29T17:44:35.806Z,69.20
2018-11-29T17:47:03.572Z,69.90
2018-11-29T17:49:31.316Z,70.10
2018-11-29T17:51:59.166Z,69.30
2018-11-29T17:54:26.893Z,69.20
2018-11-29T17:56:54.574Z,69.30
2018-11-29T17:59:22.238Z,69.00
2018-11-29T18:01:50.004Z,69.30
2018-11-29T18:04:17.682Z,69.80
2018-11-29T18:06:45.378Z,69.50
2018-11-29T18:09:13.068Z,69.30
2018-11-29T18:11:40.658Z,69.80
2018-11-29T18:14:08.512Z,69.40
2018-11-29T18:16:36.199Z,69.00
2018-11-29T18:19:04.092Z,69.10
2018-11-29T18:21:31.857Z,69.00
2018-11-29T18:23:59.583Z,69.00
2018-11-29T18:26:27.373Z,68.70
2018-11-29T18:28:55.436Z,68.90
2018-11-29T18:31:23.139Z,68.70
2018-11-29T18:33:51.216Z,69.10
2018-11-29T18:36:18.971Z,69.00
2018-11-29T18:38:46.564Z,69.10
2018-11-29T18:41:14.230Z,68.80
2018-11-29T18:43:41.898Z,68.90
2018-11-29T18:46:09.548Z,68.90
2018-11-29T18:48:37.186Z,68.90
2018-11-29T18:51:05.109Z,68.90
2018-11-29T18:53:32.812Z,69.10
2018-11-29T18:56:00.746Z,69.00
2018-11-29T18:58:28.280Z,68.90
2018-11-29T19:00:56.132Z,69.10
2018-11-29T19:03:23.797Z,69.00
2018-11-29T19:05:51.621Z,68.90
2018-11-29T19:08:19.362Z,68.70
2018-11-29T19:10:47.154Z,68.60
2018-11-29T19:13:14.961Z,68.50
2018-11-29T19:15:42.732Z,68.50
2018-11-29T19:18:11.028Z,68.70
2018-11-29T19:20:38.546Z,68.50
2018-11-29T19:23:06.218Z,68.50
2018-11-29T19:25:33.988Z,68.70
2018-11-29T19:28:01.705Z,69.00
2018-11-29T19:30:30.225Z,69.10
2018-11-29T19:32:59.574Z,69.10
2018-11-29T19:35:27.217Z,69.20
2018-11-29T19:37:54.973Z,69.30
2018-11-29T19:40:22.743Z,69.20
2018-11-29T19:42:50.492Z,69.30
2018-11-29T19:45:18.315Z,69.30
2018-11-29T19:47:46.067Z,69.40
2018-11-29T19:50:17.545Z,69.50
2018-11-29T19:52:47.297Z,69.40
2018-11-29T19:55:18.553Z,69.70
2018-11-29T19:57:46.276Z,69.80
2018-11-29T20:00:14.297Z,69.80
2018-11-29T20:02:43.161Z,69.90
2018-11-29T20:05:11.612Z,69.90
2018-11-29T20:07:39.384Z,69.90
2018-11-29T20:10:11.183Z,70.00
2018-11-29T20:12:39.285Z,70.00
2018-11-29T20:15:10.625Z,70.00
2018-11-29T20:17:38.412Z,70.20
2018-11-29T20:20:08.437Z,70.20
2018-11-29T20:22:36.622Z,70.30
2018-11-29T20:25:05.787Z,70.40
2018-11-29T20:27:33.687Z,70.30
2018-11-29T20:30:02.580Z,70.30
2018-11-29T20:32:30.287Z,70.10
2018-11-29T20:34:58.121Z,70.20
2018-11-29T20:37:25.840Z,69.90
2018-11-29T20:39:53.664Z,69.90
2018-11-29T20:42:21.607Z,69.90
2018-11-29T20:44:49.583Z,70.00
2018-11-29T20:47:17.525Z,70.00
2018-11-29T20:49:45.454Z,70.00
2018-11-29T20:52:13.208Z,69.90
2018-11-29T20:54:41.235Z,69.70
2018-11-29T20:57:09.133Z,69.70
2018-11-29T20:59:36.768Z,69.60
2018-11-29T21:02:04.743Z,69.70
2018-11-29T21:04:32.882Z,69.60
2018-11-29T21:07:00.577Z,69.80
2018-11-29T21:09:28.374Z,69.80
2018-11-29T21:11:56.210Z,69.90
2018-11-29T21:14:24.011Z,69.70
2018-11-29T21:16:51.786Z,69.70
2018-11-29T21:19:19.572Z,69.50
2018-11-29T21:21:47.388Z,69.50
2018-11-29T21:24:15.312Z,69.60
2018-11-29T21:26:43.184Z,69.60
2018-11-29T21:29:10.902Z,69.80
2018-11-29T21:31:38.637Z,69.80
2018-11-29T21:34:06.307Z,69.80
2018-11-29T21:36:34.025Z,69.90
2018-11-29T21:39:01.778Z,69.80
2018-11-29T21:41:29.463Z,69.50
2018-11-29T21:43:57.249Z,69.60
2018-11-29T21:46:25.037Z,69.70
2018-11-29T21:48:52.808Z,69.60
2018-11-29T21:51:20.464Z,69.50
2018-11-29T21:53:48.131Z,69.70
2018-11-29T21:56:16.099Z,69.60
2018-11-29T21:58:44.221Z,69.60
2018-11-29T22:01:12.230Z,69.60
2018-11-29T22:03:40.303Z,69.70
2018-11-29T22:06:08.219Z,69.80
2018-11-29T22:08:36.247Z,69.80
2018-11-29T22:11:04.411Z,69.70
2018-11-29T22:13:32.455Z,69.50
2018-11-29T22:16:00.510Z,69.60
2018-11-29T22:18:28.519Z,69.80
2018-11-29T22:21:02.600Z,69.70
2018-11-29T22:23:31.726Z,69.80
2018-11-29T22:26:00.526Z,70.00
2018-11-29T22:28:29.149Z,69.90
2018-11-29T22:30:57.095Z,69.80
2018-11-29T22:33:25.089Z,69.90
2018-11-29T22:35:53.034Z,70.00
2018-11-29T22:38:20.952Z,69.90
2018-11-29T22:40:48.688Z,70.00
2018-11-29T22:43:16.289Z,70.00
2018-11-29T22:45:43.946Z,70.00
2018-11-29T22:48:11.596Z,69.90
2018-11-29T22:50:39.220Z,69.90
2018-11-29T22:53:06.875Z,70.00
2018-11-29T22:55:34.460Z,69.80
2018-11-29T22:58:02.060Z,69.90
2018-11-29T23:00:35.225Z,70.00
2018-11-29T23:03:02.897Z,70.10
2018-11-29T23:05:31.400Z,70.10
2018-11-29T23:07:58.964Z,70.00
2018-11-29T23:10:26.602Z,70.10
2018-11-29T23:12:54.223Z,70.10
2018-11-29T23:15:21.826Z,70.20
2018-11-29T23:17:49.391Z,70.20
2018-11-29T23:20:16.916Z,70.30
2018-11-29T23:22:44.497Z,70.30
2018-11-29T23:25:13.081Z,70.30
2018-11-29T23:27:40.812Z,70.20
2018-11-29T23:30:14.460Z,70.30
2018-11-29T23:32:42.221Z,70.30
2018-11-29T23:35:10.380Z,70.50
2018-11-29T23:37:37.999Z,70.30
2018-11-29T23:40:07.833Z,70.40
2018-11-29T23:42:35.402Z,70.30
2018-11-29T23:45:03.679Z,70.20
2018-11-29T23:47:31.323Z,70.10
2018-11-29T23:49:58.881Z,70.10
2018-11-29T23:52:26.515Z,70.50
2018-11-29T23:54:54.085Z,70.70
2018-11-29T23:57:21.639Z,71.20
2018-11-29T23:59:49.188Z,71.00
